Airfield :
LOGIN :

Register | Disclaimer

   EN    FR    IT 

 










Legend :    VFR   Marginal VFR   IFR   Intensive IFR   Very Intensive IFR
Visi :
Ceiling :
>= 8 km
>= 3000ft
5 to 8 km
1000 to 3000 ft
1500m to 5 km
500 to 1000 ft
800 to 1500m
200 to 500 ft
< 800m
< 200 ft
Symbols :   Thunderstorms  Fog  Heavy snow  Heavy precipitations  Wind > 20 kt
SIGMETs :     Misc.  Thunderstorms  Icing  Turbulence  Mountain Waves  Volcanic Ashes






- Airport Elevation : 648 ft
- IATA code : INI


LYNI - Nis Constantine

CURRENT METAR :
  • 211400Z VRB02KT 9999 FEW037 16/09 Q1014 NOSIG

EXPIRED METARs :
  • 211330Z VRB01KT 9999 FEW037 16/09 Q1014 NOSIG
  • 211300Z VRB01KT 9999 FEW030 15/09 Q1015 NOSIG
  • 211230Z VRB01KT 9999 FEW033 15/11 Q1015 NOSIG
  • 211200Z VRB01KT 9999 FEW033 14/12 Q1015 NOSIG
  • 211130Z VRB01KT 9999 FEW023 11/11 Q1016 NOSIG

TAF TAF LYNI
Valid from the 21 at 12:00 until the 22 at 12:00 UTC


211100Z 2112/2212 06006KT 6000 SCT015 TX11/2113Z TN07/2205Z
BECMG 2115/2117 3000 BR BKN010
TEMPO 2117/2202 0500 FG
TEMPO 2202/2206 RA
BECMG 2206/2208 6000 NSW SCT013 BKN030



MET'MAP, your aeronautical weather chart ! - Copyright ORBIFLY December 2007 - Disclaimer

ORBIFLY MET'MAP TEAM :

Programming & Development : Alexandra Zaïnal
Concept & Development : Baudouin d'Aumeries
Co-Development & Prog : Marc-Olivier Méhu
Technical & hardware support : Manuel Goepfert

Contact : metmap@orbifly.com




SOURCES & CREDITS :

   NOAA